Ballater, United Kingdom
Current Conditions -  °F | °C
As of 2:50 PM on Wednesday 22 Oct 2014 (Local Time) from EGPD Reporting Station
Rain Showers Rain Showers  
Wind Chill: 50°   Ceiling: Unl
Heat Index: 50°   Visibility: 6mi
Dew Point: 48°   Wind: 12mph
Humidity: 94%   Direction: 200°SSW
Pressure: 29.85"   Gusts: NA
Location:  57.05°N, 3.04°W
Report Text: EGPD 221350Z 20010KT 9999 -SHRA NSC 10/09 Q1011 NOSIG
Loading
Personal Weather Stations






























Interactive Weather Map
Tropical Storm Tracking
New forecast layout! Learn more

10-Day Weather Forecast

Advertisements
Track Severe Weather on mobile